createdAt,value
2023-03-24T00:00:05.608Z,95813.28
2023-03-24T00:02:37.475Z,95808.19
2023-03-24T00:05:05.458Z,95813.28
2023-03-24T00:07:35.342Z,95815.00
2023-03-24T00:10:01.829Z,95823.75
2023-03-24T00:12:28.167Z,95823.94
2023-03-24T00:14:54.544Z,95823.75
2023-03-24T00:17:25.316Z,95819.56
2023-03-24T00:19:52.334Z,95795.53
2023-03-24T00:22:21.150Z,95810.44
2023-03-24T00:24:47.747Z,95801.81
2023-03-24T00:27:15.497Z,95788.03
2023-03-24T00:29:41.860Z,95779.94
2023-03-24T00:32:08.305Z,95767.28
2023-03-24T00:34:38.289Z,95763.63
2023-03-24T00:37:06.314Z,95762.53
2023-03-24T00:39:33.230Z,95761.34
2023-03-24T00:42:01.629Z,95762.19
2023-03-24T00:44:27.980Z,95760.16
2023-03-24T00:46:57.325Z,95760.97
2023-03-24T00:49:47.715Z,95751.69
2023-03-24T00:52:23.074Z,95751.84
2023-03-24T00:54:51.964Z,95744.94
2023-03-24T00:57:22.058Z,95740.22
2023-03-24T00:59:49.828Z,95742.44
2023-03-24T01:02:22.259Z,95737.78
2023-03-24T01:04:57.238Z,95732.78
2023-03-24T01:07:25.900Z,95729.88
2023-03-24T01:09:57.528Z,95741.34
2023-03-24T01:12:26.441Z,95750.44
2023-03-24T01:14:53.621Z,95751.16
2023-03-24T01:17:22.371Z,95754.31
2023-03-24T01:19:49.026Z,95755.47
2023-03-24T01:22:16.470Z,95749.41
2023-03-24T01:24:43.706Z,95741.13
2023-03-24T01:27:10.358Z,95746.41
2023-03-24T01:29:37.166Z,95761.97
2023-03-24T01:32:03.722Z,95767.22
2023-03-24T01:34:30.224Z,95773.50
2023-03-24T01:36:56.584Z,95778.06
2023-03-24T01:39:23.048Z,95776.84
2023-03-24T01:41:49.415Z,95773.53
2023-03-24T01:44:36.963Z,95780.78
2023-03-24T01:47:06.896Z,95784.31
2023-03-24T01:49:50.268Z,95778.00
2023-03-24T01:52:35.486Z,95769.31
2023-03-24T01:55:15.859Z,95761.53
2023-03-24T01:57:47.764Z,95757.19
2023-03-24T02:00:18.729Z,95762.94
2023-03-24T02:02:54.630Z,95755.72
2023-03-24T02:05:24.636Z,95751.28
2023-03-24T02:07:58.893Z,95760.47
2023-03-24T02:10:25.983Z,95741.72
2023-03-24T02:12:52.553Z,95741.16
2023-03-24T02:15:20.053Z,95736.53
2023-03-24T02:17:58.423Z,95741.59
2023-03-24T02:20:38.097Z,95745.00
2023-03-24T02:23:29.138Z,95743.81
2023-03-24T02:26:20.549Z,95749.81
2023-03-24T02:28:55.828Z,95747.19
2023-03-24T02:31:43.691Z,95744.91
2023-03-24T02:34:16.262Z,95743.16
2023-03-24T02:37:06.933Z,95735.78
2023-03-24T02:39:41.627Z,95731.78
2023-03-24T02:42:42.346Z,95717.13
2023-03-24T02:45:37.847Z,95718.94
2023-03-24T02:48:36.080Z,95702.91
2023-03-24T02:51:40.357Z,95694.16
2023-03-24T02:54:18.337Z,95682.63
2023-03-24T02:56:49.653Z,95675.69
2023-03-24T02:59:38.779Z,95674.16
2023-03-24T03:02:12.646Z,95665.13
2023-03-24T03:05:00.832Z,95669.22
2023-03-24T03:07:33.326Z,95680.34
2023-03-24T03:10:24.063Z,95670.63
2023-03-24T03:12:54.809Z,95663.84
2023-03-24T03:15:28.559Z,95660.41
2023-03-24T03:18:09.747Z,95660.84
2023-03-24T03:20:42.711Z,95659.31
2023-03-24T03:23:14.523Z,95658.22
2023-03-24T03:25:50.268Z,95643.69
2023-03-24T03:28:21.846Z,95645.31
2023-03-24T03:30:57.045Z,95643.69
2023-03-24T03:33:46.561Z,95634.31
2023-03-24T03:36:28.370Z,95631.72
2023-03-24T03:39:32.780Z,95625.69
2023-03-24T03:41:59.383Z,95638.25
2023-03-24T03:44:26.189Z,95646.03
2023-03-24T03:46:53.021Z,95645.16
2023-03-24T03:49:19.700Z,95648.56
2023-03-24T03:51:46.272Z,95669.88
2023-03-24T03:54:14.811Z,95674.59
2023-03-24T03:56:42.475Z,95683.72
2023-03-24T03:59:22.764Z,95677.13
2023-03-24T04:01:49.590Z,95679.53
2023-03-24T04:04:40.967Z,95675.66
2023-03-24T04:07:37.421Z,95690.31
2023-03-24T04:10:36.038Z,95704.91
2023-03-24T04:13:10.202Z,95702.44
2023-03-24T04:15:47.743Z,95696.47
2023-03-24T04:18:23.339Z,95710.72
2023-03-24T04:21:33.343Z,95710.06
2023-03-24T04:24:26.735Z,95710.66
2023-03-24T04:26:54.478Z,95703.09
2023-03-24T04:29:34.325Z,95691.09
2023-03-24T04:32:06.955Z,95698.34
2023-03-24T04:34:41.131Z,95714.25
2023-03-24T04:37:19.466Z,95711.97
2023-03-24T04:39:49.601Z,95713.63
2023-03-24T04:42:22.781Z,95715.38
2023-03-24T04:44:52.233Z,95712.94
2023-03-24T04:47:26.638Z,95709.94
2023-03-24T04:50:01.191Z,95715.72
2023-03-24T04:52:27.815Z,95713.66
2023-03-24T04:54:54.164Z,95707.81
2023-03-24T04:57:20.985Z,95705.66
2023-03-24T04:59:47.341Z,95720.34
2023-03-24T05:02:13.722Z,95713.13
2023-03-24T05:04:40.169Z,95719.31
2023-03-24T05:07:06.495Z,95711.81
2023-03-24T05:09:33.008Z,95708.97
2023-03-24T05:12:01.506Z,95715.66
2023-03-24T05:14:28.326Z,95709.56
2023-03-24T05:16:54.718Z,95712.41
2023-03-24T05:19:21.235Z,95710.97
2023-03-24T05:21:47.788Z,95725.84
2023-03-24T05:24:14.230Z,95726.09
2023-03-24T05:26:40.646Z,95739.03
2023-03-24T05:29:06.981Z,95733.44
2023-03-24T05:31:33.303Z,95730.78
2023-03-24T05:34:00.123Z,95734.75
2023-03-24T05:36:26.533Z,95734.75
2023-03-24T05:38:52.878Z,95734.06
2023-03-24T05:41:19.194Z,95728.19
2023-03-24T05:43:45.711Z,95720.94
2023-03-24T05:46:12.126Z,95739.66
2023-03-24T05:48:38.528Z,95727.31
2023-03-24T05:51:05.050Z,95731.91
2023-03-24T05:53:31.400Z,95739.13
2023-03-24T05:55:58.601Z,95745.31
2023-03-24T05:58:25.129Z,95742.53
2023-03-24T06:00:51.474Z,95745.31
2023-03-24T06:03:18.116Z,95753.69
2023-03-24T06:05:45.898Z,95747.09
2023-03-24T06:08:13.000Z,95754.34
2023-03-24T06:10:40.504Z,95762.25
2023-03-24T06:13:08.857Z,95762.56
2023-03-24T06:15:35.675Z,95759.31
2023-03-24T06:18:02.148Z,95751.25
2023-03-24T06:20:29.143Z,95750.06
2023-03-24T06:22:59.047Z,95756.53
2023-03-24T06:25:27.680Z,95750.13
2023-03-24T06:27:54.017Z,95758.31
2023-03-24T06:30:20.472Z,95751.38
2023-03-24T06:32:47.145Z,95755.66
2023-03-24T06:35:15.161Z,95764.53
2023-03-24T06:37:41.695Z,95776.56
2023-03-24T06:40:10.903Z,95781.00
2023-03-24T06:42:37.545Z,95785.25
2023-03-24T06:45:05.257Z,95791.56
2023-03-24T06:47:31.651Z,95785.53
2023-03-24T06:49:57.985Z,95787.66
2023-03-24T06:52:24.709Z,95801.47
2023-03-24T06:54:51.067Z,95798.69
2023-03-24T06:57:17.777Z,95807.25
2023-03-24T06:59:44.673Z,95801.34
2023-03-24T07:02:12.482Z,95821.94
2023-03-24T07:04:38.827Z,95825.69
2023-03-24T07:07:22.416Z,95820.25
2023-03-24T07:09:51.554Z,95825.16
2023-03-24T07:12:17.882Z,95815.63
2023-03-24T07:14:44.194Z,95813.75
2023-03-24T07:17:10.618Z,95843.59
2023-03-24T07:19:37.037Z,95828.69
2023-03-24T07:22:03.384Z,95836.09
2023-03-24T07:24:31.727Z,95846.63
2023-03-24T07:26:58.300Z,95838.59
2023-03-24T07:29:24.749Z,95846.47
2023-03-24T07:31:53.123Z,95873.09
2023-03-24T07:34:20.063Z,95867.69
2023-03-24T07:36:46.632Z,95859.78
2023-03-24T07:39:13.356Z,95868.19
2023-03-24T07:41:39.708Z,95883.19
2023-03-24T07:44:06.021Z,95894.22
2023-03-24T07:46:32.467Z,95890.28
2023-03-24T07:49:05.682Z,95897.53
2023-03-24T07:51:38.525Z,95902.28
2023-03-24T07:54:06.573Z,95928.28
2023-03-24T07:56:32.956Z,95902.94
2023-03-24T07:58:59.348Z,95892.44
2023-03-24T08:01:25.724Z,95887.19
2023-03-24T08:03:54.970Z,95889.31
2023-03-24T08:06:21.529Z,95894.72
2023-03-24T08:08:47.857Z,95885.84
2023-03-24T08:11:14.246Z,95881.38
2023-03-24T08:13:40.588Z,95901.28
2023-03-24T08:16:07.395Z,95906.41
2023-03-24T08:18:34.978Z,95901.94
2023-03-24T08:21:02.128Z,95914.16
2023-03-24T08:23:28.577Z,95923.19
2023-03-24T08:25:55.144Z,95935.34
2023-03-24T08:28:21.499Z,95958.03
2023-03-24T08:30:48.422Z,95943.75
2023-03-24T08:33:16.722Z,95928.94
2023-03-24T08:35:45.874Z,95927.94
2023-03-24T08:38:15.569Z,95932.88
2023-03-24T08:40:43.670Z,95934.16
2023-03-24T08:43:14.397Z,95931.88
2023-03-24T08:45:41.142Z,95928.13
2023-03-24T08:48:08.977Z,95928.28
2023-03-24T08:50:38.831Z,95923.34
2023-03-24T08:53:05.237Z,95921.69
2023-03-24T08:55:32.284Z,95928.41
2023-03-24T08:57:58.677Z,95922.66
2023-03-24T09:00:25.584Z,95922.03
2023-03-24T09:02:54.913Z,95935.84
2023-03-24T09:05:36.656Z,95928.09
2023-03-24T09:08:10.158Z,95930.59
2023-03-24T09:10:36.613Z,95930.25
2023-03-24T09:13:04.446Z,95932.56
2023-03-24T09:15:31.167Z,95943.09
2023-03-24T09:17:57.538Z,95946.53
2023-03-24T09:20:24.127Z,95941.75
2023-03-24T09:22:50.503Z,95938.78
2023-03-24T09:25:19.285Z,95942.59
2023-03-24T09:27:46.405Z,95940.44
2023-03-24T09:30:15.460Z,95936.44
2023-03-24T09:32:42.310Z,95947.63
2023-03-24T09:35:09.352Z,95935.09
2023-03-24T09:37:37.318Z,95944.63
2023-03-24T09:40:04.923Z,95944.09
2023-03-24T09:42:38.598Z,95951.16
2023-03-24T09:45:12.145Z,95949.09
2023-03-24T09:47:42.354Z,95941.25
2023-03-24T09:50:22.586Z,95945.31
2023-03-24T09:52:54.068Z,95939.31
2023-03-24T09:55:25.547Z,95960.28
2023-03-24T09:57:53.714Z,95966.44
2023-03-24T10:00:23.572Z,95970.06
2023-03-24T10:02:52.994Z,95972.53
2023-03-24T10:05:27.758Z,95982.88
2023-03-24T10:08:12.328Z,95983.84
2023-03-24T10:10:57.421Z,95979.44
2023-03-24T10:13:49.395Z,95974.00
2023-03-24T10:16:23.933Z,95985.66
2023-03-24T10:19:30.786Z,95977.44
2023-03-24T10:22:27.054Z,95972.34
2023-03-24T10:24:56.261Z,95966.09
2023-03-24T10:27:39.922Z,95956.91
2023-03-24T10:30:15.876Z,95963.47
2023-03-24T10:32:43.286Z,95961.81
2023-03-24T10:35:18.364Z,95950.09
2023-03-24T10:37:45.393Z,95967.56
2023-03-24T10:40:18.850Z,95955.50
2023-03-24T10:42:48.689Z,95957.19
2023-03-24T10:45:32.095Z,95959.16
2023-03-24T10:48:01.666Z,95942.22
2023-03-24T10:50:31.752Z,95944.78
2023-03-24T10:52:58.135Z,95946.75
2023-03-24T10:55:31.485Z,95954.50
2023-03-24T10:58:00.049Z,95962.94
2023-03-24T11:00:29.787Z,95973.97
2023-03-24T11:03:00.917Z,95971.97
2023-03-24T11:05:30.597Z,95976.34
2023-03-24T11:08:12.195Z,95972.97
2023-03-24T11:10:38.879Z,95983.31
2023-03-24T11:13:07.780Z,95988.59
2023-03-24T11:15:37.110Z,95995.03
2023-03-24T11:18:12.572Z,95983.88
2023-03-24T11:20:43.114Z,95975.66
2023-03-24T11:23:40.712Z,95993.09
2023-03-24T11:26:19.631Z,96002.78
2023-03-24T11:28:56.951Z,95998.16
2023-03-24T11:31:30.434Z,95988.81
2023-03-24T11:34:08.808Z,95991.44
2023-03-24T11:36:52.158Z,95992.63
2023-03-24T11:39:34.087Z,95989.34
2023-03-24T11:42:11.946Z,95980.03
2023-03-24T11:44:38.489Z,95956.63
2023-03-24T11:47:08.968Z,95958.19
2023-03-24T11:49:42.932Z,95965.25
2023-03-24T11:52:20.437Z,95981.22
2023-03-24T11:54:46.751Z,95983.63
2023-03-24T11:57:17.640Z,95974.94
2023-03-24T11:59:58.979Z,95981.47
2023-03-24T12:02:34.772Z,95987.63
2023-03-24T12:05:23.638Z,96002.53
2023-03-24T12:07:53.255Z,96003.59
2023-03-24T12:10:55.684Z,96001.28
2023-03-24T12:13:58.684Z,95993.81
2023-03-24T12:16:44.983Z,95991.19
2023-03-24T12:19:27.899Z,95978.78
2023-03-24T12:22:12.010Z,95984.34
2023-03-24T12:25:08.762Z,95952.03
2023-03-24T12:28:09.252Z,95947.03
2023-03-24T12:31:34.310Z,95943.38
2023-03-24T12:34:38.562Z,95959.44
2023-03-24T12:37:40.241Z,95946.56
2023-03-24T12:40:15.474Z,95957.28
2023-03-24T12:42:55.162Z,95946.56
2023-03-24T12:45:34.699Z,95956.19
2023-03-24T12:48:07.977Z,95954.84
2023-03-24T12:50:48.432Z,95944.34
2023-03-24T12:53:41.715Z,95939.81
2023-03-24T12:56:27.318Z,95953.97
2023-03-24T12:59:14.064Z,95952.44
2023-03-24T13:01:50.545Z,95950.44
2023-03-24T13:04:35.154Z,95956.81
2023-03-24T13:07:04.629Z,95948.91
2023-03-24T13:09:59.172Z,95956.78
2023-03-24T13:12:44.011Z,95958.91
2023-03-24T13:15:13.353Z,95945.13
2023-03-24T13:17:50.787Z,95938.19
2023-03-24T13:20:25.642Z,95931.34
2023-03-24T13:22:52.179Z,95948.84
2023-03-24T13:25:42.660Z,95938.38
2023-03-24T13:28:15.281Z,95942.97
2023-03-24T13:30:44.728Z,95934.50
2023-03-24T13:33:33.926Z,95941.41
2023-03-24T13:36:33.586Z,95942.47
2023-03-24T13:39:06.171Z,95957.75
2023-03-24T13:41:37.576Z,95961.59
2023-03-24T13:44:09.368Z,95966.19
2023-03-24T13:46:38.106Z,95961.59
2023-03-24T13:49:08.805Z,95970.19
2023-03-24T13:51:44.715Z,95972.97
2023-03-24T13:54:21.476Z,95970.34
2023-03-24T13:57:07.441Z,95962.50
2023-03-24T14:00:02.111Z,95967.75
2023-03-24T14:02:28.491Z,95956.84
2023-03-24T14:04:55.152Z,95952.41
2023-03-24T14:07:36.872Z,95959.00
2023-03-24T14:10:20.684Z,95961.03
2023-03-24T14:12:59.251Z,95955.69
2023-03-24T14:15:33.731Z,95954.81
2023-03-24T14:18:25.484Z,95946.63
2023-03-24T14:20:58.121Z,95938.19
2023-03-24T14:23:40.903Z,95949.66
2023-03-24T14:26:31.592Z,95948.00
2023-03-24T14:28:58.435Z,95952.50
2023-03-24T14:31:33.118Z,95955.47
2023-03-24T14:34:06.800Z,95965.31
2023-03-24T14:36:39.426Z,95958.72
2023-03-24T14:39:07.243Z,95954.69
2023-03-24T14:41:38.937Z,95958.00
2023-03-24T14:44:05.966Z,95953.53
2023-03-24T14:46:44.627Z,95952.94
2023-03-24T14:49:30.470Z,95958.00
2023-03-24T14:52:13.371Z,95959.13
2023-03-24T14:54:46.056Z,95958.66
2023-03-24T14:57:27.272Z,95956.34
2023-03-24T15:00:21.392Z,95961.41
2023-03-24T15:02:52.998Z,95973.94
2023-03-24T15:05:23.102Z,95984.75
2023-03-24T15:08:28.452Z,95976.63
2023-03-24T15:11:05.718Z,95991.44
2023-03-24T15:13:37.176Z,95997.09
2023-03-24T15:16:07.101Z,96000.19
2023-03-24T15:18:34.618Z,96010.47
2023-03-24T15:21:00.981Z,96012.56
2023-03-24T15:23:31.254Z,96015.41
2023-03-24T15:25:57.777Z,96015.75
2023-03-24T15:28:29.211Z,96020.53
2023-03-24T15:30:59.020Z,96022.03
2023-03-24T15:33:26.072Z,96009.91
2023-03-24T15:35:57.736Z,96011.94
2023-03-24T15:38:29.797Z,96003.25
2023-03-24T15:41:09.573Z,95995.34
2023-03-24T15:43:44.732Z,95998.47
2023-03-24T15:46:29.253Z,96012.44
2023-03-24T15:48:58.094Z,95996.09
2023-03-24T15:51:51.239Z,95982.75
2023-03-24T15:54:28.623Z,96004.09
2023-03-24T15:57:18.084Z,95985.16
2023-03-24T15:59:48.872Z,96001.34
2023-03-24T16:02:56.014Z,95987.56
2023-03-24T16:05:26.525Z,95979.41
2023-03-24T16:08:06.730Z,95983.41
2023-03-24T16:10:39.172Z,95981.34
2023-03-24T16:13:15.736Z,95998.94
2023-03-24T16:15:54.555Z,95984.19
2023-03-24T16:18:25.036Z,95992.56
2023-03-24T16:20:52.314Z,96014.47
2023-03-24T16:23:18.714Z,96005.41
2023-03-24T16:25:45.144Z,96015.63
2023-03-24T16:28:19.137Z,96009.81
2023-03-24T16:30:51.670Z,95999.06
2023-03-24T16:33:20.436Z,95981.78
2023-03-24T16:35:46.791Z,95981.09
2023-03-24T16:38:14.095Z,95986.56
2023-03-24T16:40:45.995Z,95969.69
2023-03-24T16:43:12.329Z,95949.09
2023-03-24T16:45:38.722Z,95957.63
2023-03-24T16:48:05.407Z,95959.56
2023-03-24T16:50:37.540Z,95957.28
2023-03-24T16:53:05.363Z,95971.63
2023-03-24T16:55:32.975Z,95957.56
2023-03-24T16:57:59.331Z,95959.91
2023-03-24T17:00:25.718Z,95942.84
2023-03-24T17:02:53.796Z,95952.69
2023-03-24T17:05:35.627Z,95952.47
2023-03-24T17:08:02.212Z,95954.03
2023-03-24T17:10:28.600Z,95965.19
2023-03-24T17:12:55.879Z,95974.91
2023-03-24T17:15:30.587Z,95985.34
2023-03-24T17:17:57.241Z,95996.38
2023-03-24T17:20:24.586Z,96001.53
2023-03-24T17:22:52.498Z,96008.34
2023-03-24T17:25:22.247Z,95999.63
2023-03-24T17:27:49.842Z,96006.13
2023-03-24T17:30:21.626Z,96019.25
2023-03-24T17:32:48.629Z,96012.66
2023-03-24T17:35:17.829Z,96017.47
2023-03-24T17:37:44.430Z,96030.09
2023-03-24T17:40:12.320Z,96026.31
2023-03-24T17:42:40.790Z,96034.84
2023-03-24T17:45:11.810Z,96043.66
2023-03-24T17:47:39.349Z,96051.06
2023-03-24T17:50:09.618Z,96068.69
2023-03-24T17:52:40.902Z,96079.31
2023-03-24T17:55:07.632Z,96070.66
2023-03-24T17:57:34.862Z,96069.28
2023-03-24T18:00:01.228Z,96061.97
2023-03-24T18:02:27.770Z,96081.94
2023-03-24T18:04:58.020Z,96050.41
2023-03-24T18:07:24.660Z,96048.47
2023-03-24T18:09:51.501Z,96058.00
2023-03-24T18:12:18.840Z,96065.25
2023-03-24T18:14:45.485Z,96003.19
2023-03-24T18:17:12.536Z,95991.94
2023-03-24T18:19:38.951Z,95974.03
2023-03-24T18:22:05.349Z,95974.03
2023-03-24T18:24:32.189Z,95974.59
2023-03-24T18:26:58.629Z,95990.78
2023-03-24T18:29:25.227Z,95988.34
2023-03-24T18:31:51.574Z,95994.38
2023-03-24T18:34:17.998Z,96000.53
2023-03-24T18:36:46.177Z,96011.13
2023-03-24T18:39:12.831Z,96008.38
2023-03-24T18:41:39.647Z,96016.34
2023-03-24T18:44:08.757Z,96021.59
2023-03-24T18:46:36.503Z,96026.28
2023-03-24T18:49:03.455Z,96022.00
2023-03-24T18:51:30.106Z,96037.16
2023-03-24T18:53:56.436Z,96032.88
2023-03-24T18:56:23.211Z,96037.69
2023-03-24T18:58:51.593Z,96043.91
2023-03-24T19:01:22.476Z,96047.38
2023-03-24T19:03:50.252Z,96061.81
2023-03-24T19:06:17.489Z,96056.31
2023-03-24T19:08:46.864Z,96050.53
2023-03-24T19:11:15.677Z,96061.25
2023-03-24T19:13:46.029Z,96066.06
2023-03-24T19:16:12.719Z,96066.25
2023-03-24T19:18:39.549Z,96078.66
2023-03-24T19:21:06.825Z,96088.28
2023-03-24T19:23:33.743Z,96085.09
2023-03-24T19:26:01.531Z,96087.97
2023-03-24T19:28:30.264Z,96082.91
2023-03-24T19:30:59.040Z,96082.78
2023-03-24T19:33:26.834Z,96088.53
2023-03-24T19:35:53.652Z,96085.50
2023-03-24T19:38:24.489Z,96083.59
2023-03-24T19:40:52.662Z,96094.31
2023-03-24T19:43:19.547Z,96092.41
2023-03-24T19:45:53.988Z,96102.72
2023-03-24T19:48:22.067Z,96102.56
2023-03-24T19:50:53.530Z,96094.31
2023-03-24T19:53:21.405Z,96091.56
2023-03-24T19:55:48.733Z,96091.00
2023-03-24T19:58:16.196Z,96088.25
2023-03-24T20:00:42.732Z,96083.44
2023-03-24T20:03:09.381Z,96082.22
2023-03-24T20:05:35.950Z,96073.94
2023-03-24T20:08:02.881Z,96082.22
2023-03-24T20:10:29.481Z,96088.81
2023-03-24T20:12:56.219Z,96086.22
2023-03-24T20:15:22.912Z,96089.09
2023-03-24T20:17:49.365Z,96090.47
2023-03-24T20:20:15.827Z,96095.44
2023-03-24T20:22:45.455Z,96089.63
2023-03-24T20:25:14.619Z,96091.97
2023-03-24T20:27:41.678Z,96096.78
2023-03-24T20:30:08.549Z,96098.44
2023-03-24T20:32:35.558Z,96093.91
2023-03-24T20:35:02.183Z,96096.66
2023-03-24T20:37:30.431Z,96106.44
2023-03-24T20:39:56.801Z,96101.47
2023-03-24T20:42:24.325Z,96113.59
2023-03-24T20:44:50.850Z,96126.28
2023-03-24T20:47:19.052Z,96125.97
2023-03-24T20:49:45.828Z,96119.66
2023-03-24T20:52:14.199Z,96116.34
2023-03-24T20:54:41.507Z,96122.69
2023-03-24T20:57:11.841Z,96127.63
2023-03-24T20:59:39.227Z,96123.78
2023-03-24T21:02:06.498Z,96127.91
2023-03-24T21:04:33.638Z,96132.31
2023-03-24T21:07:00.100Z,96128.16
2023-03-24T21:09:26.648Z,96132.03
2023-03-24T21:11:54.038Z,96128.44
2023-03-24T21:14:20.357Z,96130.25
2023-03-24T21:16:47.778Z,96125.16
2023-03-24T21:19:14.572Z,96129.56
2023-03-24T21:21:42.699Z,96121.56
2023-03-24T21:24:09.028Z,96128.03
2023-03-24T21:26:35.589Z,96125.16
2023-03-24T21:29:01.928Z,96122.38
2023-03-24T21:31:29.542Z,96127.63
2023-03-24T21:33:57.088Z,96128.31
2023-03-24T21:36:25.291Z,96135.88
2023-03-24T21:38:53.785Z,96126.53
2023-03-24T21:41:20.803Z,96128.19
2023-03-24T21:43:50.881Z,96133.97
2023-03-24T21:46:21.771Z,96133.97
2023-03-24T21:48:51.345Z,96129.00
2023-03-24T21:51:23.940Z,96127.38
2023-03-24T21:53:51.682Z,96120.47
2023-03-24T21:56:20.045Z,96125.56
2023-03-24T21:58:46.483Z,96114.00
2023-03-24T22:01:13.033Z,96123.09
2023-03-24T22:03:39.493Z,96123.25
2023-03-24T22:06:10.331Z,96126.78
2023-03-24T22:08:38.680Z,96118.28
2023-03-24T22:11:05.758Z,96116.06
2023-03-24T22:13:32.967Z,96111.97
2023-03-24T22:16:01.625Z,96113.03
2023-03-24T22:18:30.462Z,96119.66
2023-03-24T22:21:03.158Z,96112.53
2023-03-24T22:23:36.630Z,96120.94
2023-03-24T22:26:06.237Z,96129.84
2023-03-24T22:28:34.231Z,96135.91
2023-03-24T22:31:02.464Z,96146.13
2023-03-24T22:33:29.248Z,96149.81
2023-03-24T22:35:57.151Z,96154.22
2023-03-24T22:38:24.436Z,96169.63
2023-03-24T22:40:51.501Z,96188.75
2023-03-24T22:43:17.980Z,96186.53
2023-03-24T22:45:44.571Z,96197.25
2023-03-24T22:48:11.108Z,96212.31
2023-03-24T22:50:40.974Z,96205.38
2023-03-24T22:53:07.514Z,96200.09
2023-03-24T22:55:33.824Z,96170.44
2023-03-24T22:58:00.231Z,96178.72
2023-03-24T23:00:27.010Z,96155.72
2023-03-24T23:02:53.379Z,96140.16
2023-03-24T23:05:19.883Z,96165.50
2023-03-24T23:07:47.286Z,96170.22
2023-03-24T23:10:13.905Z,96175.84
2023-03-24T23:12:42.276Z,96180.31
2023-03-24T23:15:10.690Z,96179.25
2023-03-24T23:17:37.729Z,96180.03
2023-03-24T23:20:07.132Z,96200.25
2023-03-24T23:22:33.469Z,96243.53
2023-03-24T23:25:00.715Z,96275.91
2023-03-24T23:27:33.657Z,96292.81
2023-03-24T23:29:59.988Z,96257.47
2023-03-24T23:32:26.466Z,96297.03
2023-03-24T23:34:53.285Z,96251.25
2023-03-24T23:37:19.667Z,96242.53
2023-03-24T23:39:46.251Z,96244.75
2023-03-24T23:42:12.614Z,96225.44
2023-03-24T23:44:38.931Z,96210.84
2023-03-24T23:47:05.703Z,96191.13
2023-03-24T23:49:32.218Z,96207.09
2023-03-24T23:51:58.549Z,96209.81
2023-03-24T23:54:24.918Z,96210.03
2023-03-24T23:56:51.356Z,96200.53
2023-03-24T23:59:18.406Z,96198.25
